createdAt,value
2022-10-12T00:00:12.657Z,102266.38
2022-10-12T00:03:16.738Z,102262.78
2022-10-12T00:06:21.073Z,102263.63
2022-10-12T00:09:23.592Z,102268.84
2022-10-12T00:12:26.238Z,102263.63
2022-10-12T00:15:28.738Z,102268.00
2022-10-12T00:18:33.037Z,102265.25
2022-10-12T00:21:35.558Z,102265.44
2022-10-12T00:24:42.144Z,102266.25
2022-10-12T00:27:46.314Z,102275.19
2022-10-12T00:30:48.802Z,102262.94
2022-10-12T00:33:53.054Z,102264.63
2022-10-12T00:36:56.825Z,102263.72
2022-10-12T00:39:59.316Z,102261.06
2022-10-12T00:43:01.769Z,102263.66
2022-10-12T00:46:07.009Z,102259.19
2022-10-12T00:49:17.462Z,102255.69
2022-10-12T00:52:24.702Z,102264.63
2022-10-12T00:55:31.057Z,102265.59
2022-10-12T00:58:34.485Z,102272.47
2022-10-12T01:01:39.323Z,102266.16
2022-10-12T01:04:44.320Z,102271.44
2022-10-12T01:07:47.033Z,102268.78
2022-10-12T01:10:49.567Z,102274.78
2022-10-12T01:13:52.516Z,102263.31
2022-10-12T01:16:59.573Z,102262.59
2022-10-12T01:20:26.558Z,102259.75
2022-10-12T01:24:08.110Z,102261.97
2022-10-12T01:27:26.229Z,102258.41
2022-10-12T01:30:34.447Z,102262.84
2022-10-12T01:33:40.490Z,102260.97
2022-10-12T01:36:46.925Z,102255.72
2022-10-12T01:39:54.625Z,102252.94
2022-10-12T01:42:58.932Z,102250.34
2022-10-12T01:46:08.588Z,102248.75
2022-10-12T01:49:12.308Z,102239.16
2022-10-12T01:52:27.343Z,102246.06
2022-10-12T01:55:39.316Z,102247.94
2022-10-12T01:58:55.935Z,102237.19
2022-10-12T02:02:07.847Z,102239.84
2022-10-12T02:05:15.750Z,102239.13
2022-10-12T02:08:31.393Z,102245.97
2022-10-12T02:11:38.755Z,102233.41
2022-10-12T02:14:46.486Z,102235.06
2022-10-12T02:17:53.599Z,102238.53
2022-10-12T02:21:00.419Z,102228.88
2022-10-12T02:24:07.241Z,102235.97
2022-10-12T02:27:12.354Z,102224.38
2022-10-12T02:30:15.039Z,102230.47
2022-10-12T02:33:25.636Z,102216.28
2022-10-12T02:36:36.788Z,102216.31
2022-10-12T02:39:43.241Z,102220.63
2022-10-12T02:46:18.125Z,102200.00
2022-10-12T02:49:26.109Z,102195.56
2022-10-12T02:52:28.869Z,102196.66
2022-10-12T02:55:31.699Z,102195.53
2022-10-12T02:58:34.266Z,102192.00
2022-10-12T03:01:36.865Z,102188.34
2022-10-12T03:04:40.845Z,102189.16
2022-10-12T03:07:43.349Z,102192.63
2022-10-12T03:10:45.896Z,102187.47
2022-10-12T03:13:48.372Z,102189.16
2022-10-12T03:16:50.881Z,102187.47
2022-10-12T03:19:54.731Z,102191.06
2022-10-12T03:22:57.237Z,102184.16
2022-10-12T03:25:59.739Z,102194.59
2022-10-12T03:29:02.277Z,102192.78
2022-10-12T03:32:05.115Z,102187.59
2022-10-12T03:35:10.102Z,102185.63
2022-10-12T03:38:12.638Z,102187.59
2022-10-12T03:41:15.210Z,102191.78
2022-10-12T03:44:17.669Z,102193.41
2022-10-12T03:47:20.173Z,102199.63
2022-10-12T03:50:24.141Z,102189.13
2022-10-12T03:53:26.664Z,102190.00
2022-10-12T03:56:29.134Z,102185.59
2022-10-12T03:59:31.634Z,102192.44
2022-10-12T04:02:34.142Z,102192.56
2022-10-12T04:05:37.994Z,102195.94
2022-10-12T04:08:40.508Z,102192.47
2022-10-12T04:11:42.986Z,102190.63
2022-10-12T04:14:45.523Z,102181.66
2022-10-12T04:17:48.160Z,102184.19
2022-10-12T04:20:52.015Z,102185.09
2022-10-12T04:23:54.557Z,102180.66
2022-10-12T04:26:57.046Z,102178.94
2022-10-12T04:29:59.537Z,102186.78
2022-10-12T04:33:02.016Z,102179.81
2022-10-12T04:36:06.237Z,102174.41
2022-10-12T04:39:09.332Z,102174.53
2022-10-12T04:42:11.834Z,102183.28
2022-10-12T04:45:14.600Z,102175.56
2022-10-12T04:48:17.132Z,102176.34
2022-10-12T04:51:21.072Z,102176.28
2022-10-12T04:54:23.567Z,102180.50
2022-10-12T04:57:26.097Z,102176.38
2022-10-12T05:00:28.662Z,102174.53
2022-10-12T05:03:31.192Z,102173.69
2022-10-12T05:06:35.034Z,102169.91
2022-10-12T05:09:37.513Z,102177.84
2022-10-12T05:12:40.411Z,102171.75
2022-10-12T05:15:43.637Z,102171.13
2022-10-12T05:18:46.129Z,102172.84
2022-10-12T05:21:49.962Z,102176.44
2022-10-12T05:24:53.921Z,102181.78
2022-10-12T05:27:57.051Z,102178.50
2022-10-12T05:30:59.537Z,102178.53
2022-10-12T05:34:02.026Z,102176.97
2022-10-12T05:37:06.041Z,102172.53
2022-10-12T05:40:09.123Z,102172.78
2022-10-12T05:43:11.629Z,102171.84
2022-10-12T05:46:14.671Z,102173.72
2022-10-12T05:49:17.234Z,102174.63
2022-10-12T05:52:21.182Z,102182.59
2022-10-12T05:55:23.664Z,102176.53
2022-10-12T05:58:26.746Z,102184.41
2022-10-12T06:01:29.295Z,102181.84
2022-10-12T06:04:31.788Z,102176.63
2022-10-12T06:07:35.644Z,102174.03
2022-10-12T06:10:38.676Z,102179.34
2022-10-12T06:13:41.280Z,102179.47
2022-10-12T06:16:43.754Z,102182.91
2022-10-12T06:19:46.337Z,102179.34
2022-10-12T06:22:50.168Z,102180.31
2022-10-12T06:25:53.132Z,102192.78
2022-10-12T06:28:55.761Z,102189.25
2022-10-12T06:31:58.398Z,102185.53
2022-10-12T06:35:00.883Z,102182.00
2022-10-12T06:38:04.733Z,102182.00
2022-10-12T06:41:07.225Z,102182.97
2022-10-12T06:44:09.869Z,102185.56
2022-10-12T06:47:12.406Z,102190.84
2022-10-12T06:50:14.914Z,102186.28
2022-10-12T06:53:19.419Z,102186.41
2022-10-12T06:56:22.067Z,102195.13
2022-10-12T06:59:24.869Z,102197.69
2022-10-12T07:02:27.337Z,102194.94
2022-10-12T07:05:29.901Z,102203.66
2022-10-12T07:08:33.842Z,102200.09
2022-10-12T07:11:36.502Z,102196.38
2022-10-12T07:14:38.978Z,102194.44
2022-10-12T07:17:41.526Z,102199.56
2022-10-12T07:20:44.062Z,102198.56
2022-10-12T07:23:47.910Z,102205.84
2022-10-12T07:26:50.781Z,102200.13
2022-10-12T07:29:53.310Z,102202.03
2022-10-12T07:32:55.861Z,102206.63
2022-10-12T07:36:13.207Z,102208.44
2022-10-12T07:39:17.530Z,102207.81
2022-10-12T07:42:19.993Z,102206.50
2022-10-12T07:45:22.769Z,102208.25
2022-10-12T07:48:25.304Z,102202.03
2022-10-12T07:51:27.969Z,102206.06
2022-10-12T07:54:32.742Z,102208.41
2022-10-12T07:57:35.451Z,102211.78
2022-10-12T08:00:37.974Z,102214.28
2022-10-12T08:03:40.561Z,102215.66
2022-10-12T08:06:44.513Z,102210.44
2022-10-12T08:09:49.388Z,102213.78
2022-10-12T08:12:52.435Z,102211.84
2022-10-12T08:15:54.970Z,102211.25
2022-10-12T08:18:57.473Z,102213.63
2022-10-12T08:21:59.995Z,102210.25
2022-10-12T08:25:03.916Z,102208.69
2022-10-12T08:28:06.875Z,102222.75
2022-10-12T08:31:11.161Z,102211.94
2022-10-12T08:34:13.725Z,102215.50
2022-10-12T08:37:16.233Z,102210.41
2022-10-12T08:40:29.850Z,102222.69
2022-10-12T08:43:47.316Z,102218.09
2022-10-12T08:46:50.953Z,102219.69
2022-10-12T08:49:55.162Z,102221.75
2022-10-12T08:53:05.839Z,102223.41
2022-10-12T08:56:10.056Z,102222.00
2022-10-12T08:59:14.298Z,102213.59
2022-10-12T09:02:34.355Z,102214.00
2022-10-12T09:05:43.578Z,102211.41
2022-10-12T09:09:02.311Z,102203.38
2022-10-12T09:12:24.612Z,102193.25
2022-10-12T09:15:31.461Z,102202.59
2022-10-12T09:18:41.234Z,102200.09
2022-10-12T09:21:46.762Z,102201.94
2022-10-12T09:24:50.941Z,102199.75
2022-10-12T09:27:57.032Z,102193.63
2022-10-12T09:31:12.553Z,102185.94
2022-10-12T09:34:18.989Z,102187.41
2022-10-12T09:37:25.671Z,102187.47
2022-10-12T09:40:32.094Z,102188.59
2022-10-12T09:43:35.971Z,102190.28
2022-10-12T09:46:43.543Z,102191.09
2022-10-12T09:49:47.863Z,102190.25
2022-10-12T09:52:52.938Z,102198.41
2022-10-12T09:55:59.555Z,102188.66
2022-10-12T09:59:06.405Z,102190.59
2022-10-12T10:02:16.302Z,102180.25
2022-10-12T10:05:25.733Z,102186.00
2022-10-12T10:08:28.201Z,102183.88
2022-10-12T10:11:32.434Z,102179.06
2022-10-12T10:14:36.959Z,102179.16
2022-10-12T10:17:39.889Z,102181.53
2022-10-12T10:20:51.271Z,102173.69
2022-10-12T10:23:56.489Z,102181.41
2022-10-12T10:27:01.880Z,102171.03
2022-10-12T10:30:29.778Z,102174.97
2022-10-12T10:33:35.911Z,102174.34
2022-10-12T10:36:41.696Z,102161.22
2022-10-12T10:39:47.451Z,102153.69
2022-10-12T10:42:52.481Z,102161.03
2022-10-12T10:45:59.279Z,102160.25
2022-10-12T10:49:06.838Z,102152.94
2022-10-12T10:52:20.500Z,102158.22
2022-10-12T10:55:27.782Z,102149.56
2022-10-12T10:58:35.468Z,102158.19
2022-10-12T11:01:51.338Z,102145.59
2022-10-12T11:05:02.031Z,102143.75
2022-10-12T11:08:12.061Z,102130.19
2022-10-12T11:11:17.282Z,102138.19
2022-10-12T11:14:23.050Z,102124.72
2022-10-12T11:17:31.973Z,102123.09
2022-10-12T11:20:51.031Z,102117.72
2022-10-12T11:23:59.400Z,102107.53
2022-10-12T11:27:07.401Z,102101.47
2022-10-12T11:30:15.710Z,102098.81
2022-10-12T11:33:24.522Z,102096.25
2022-10-12T11:36:30.642Z,102089.31
2022-10-12T11:39:37.098Z,102088.97
2022-10-12T11:42:43.793Z,102084.63
2022-10-12T11:45:50.426Z,102079.13
2022-10-12T11:49:00.477Z,102079.19
2022-10-12T11:52:09.711Z,102078.00
2022-10-12T11:55:42.853Z,102068.31
2022-10-12T11:59:02.940Z,102073.75
2022-10-12T12:02:15.715Z,102058.88
2022-10-12T12:05:19.633Z,102064.78
2022-10-12T12:08:23.846Z,102065.00
2022-10-12T12:11:28.685Z,102061.06
2022-10-12T12:14:49.122Z,102055.72
2022-10-12T12:18:14.401Z,102046.63
2022-10-12T12:21:18.274Z,102044.81
2022-10-12T12:24:20.875Z,102044.75
2022-10-12T12:27:29.904Z,102043.03
2022-10-12T12:30:39.564Z,102033.59
2022-10-12T12:33:45.980Z,102033.00
2022-10-12T12:36:51.532Z,102029.06
2022-10-12T12:39:57.895Z,102016.19
2022-10-12T12:43:35.185Z,102017.75
2022-10-12T12:47:43.975Z,102009.84
2022-10-12T12:50:41.719Z,102010.53
2022-10-12T12:53:50.647Z,102015.25
2022-10-12T12:57:25.823Z,102009.47
2022-10-12T13:00:38.174Z,101995.91
2022-10-12T13:04:05.545Z,102006.94
2022-10-12T13:07:34.287Z,102006.41
2022-10-12T13:10:52.616Z,102002.94
2022-10-12T13:14:07.710Z,101999.47
2022-10-12T13:17:34.148Z,101998.97
2022-10-12T13:20:40.038Z,101988.56
2022-10-12T13:23:45.689Z,101994.00
2022-10-12T13:26:52.415Z,101996.22
2022-10-12T13:29:59.030Z,101994.84
2022-10-12T13:33:09.227Z,101995.75
2022-10-12T13:36:26.466Z,101989.41
2022-10-12T13:39:29.904Z,101998.47
2022-10-12T13:42:35.799Z,101993.75
2022-10-12T13:45:45.295Z,101977.38
2022-10-12T13:49:05.465Z,101976.41
2022-10-12T13:52:21.624Z,101983.03
2022-10-12T13:55:28.554Z,101974.84
2022-10-12T13:58:35.330Z,101966.72
2022-10-12T14:01:49.324Z,101969.31
2022-10-12T14:04:54.487Z,101962.59
2022-10-12T14:08:00.036Z,101959.81
2022-10-12T14:11:05.266Z,101954.81
2022-10-12T14:14:19.874Z,101948.00
2022-10-12T14:17:22.805Z,101939.09
2022-10-12T14:20:31.629Z,101938.75
2022-10-12T14:23:34.199Z,101940.88
2022-10-12T14:26:40.527Z,101936.75
2022-10-12T14:29:46.433Z,101937.66
2022-10-12T14:32:49.831Z,101927.25
2022-10-12T14:35:53.221Z,101933.44
2022-10-12T14:39:00.252Z,101934.25
2022-10-12T14:42:05.724Z,101929.66
2022-10-12T14:45:24.152Z,101927.81
2022-10-12T14:48:26.638Z,101923.41
2022-10-12T14:51:29.589Z,101915.69
2022-10-12T14:54:32.101Z,101913.16
2022-10-12T14:57:34.573Z,101903.78
2022-10-12T15:00:39.297Z,101904.53
2022-10-12T15:03:41.761Z,101897.03
2022-10-12T15:06:49.757Z,101894.34
2022-10-12T15:09:53.724Z,101887.50
2022-10-12T15:12:56.280Z,101885.69
2022-10-12T15:16:02.124Z,101886.47
2022-10-12T15:19:04.592Z,101877.84
2022-10-12T15:22:07.649Z,101872.69
2022-10-12T15:25:18.528Z,101870.09
2022-10-12T15:28:21.753Z,101869.13
2022-10-12T15:31:25.652Z,101869.44
2022-10-12T15:34:28.489Z,101867.69
2022-10-12T15:37:31.986Z,101869.97
2022-10-12T15:40:35.430Z,101871.69
2022-10-12T15:43:39.738Z,101869.25
2022-10-12T15:46:46.069Z,101865.81
2022-10-12T15:49:48.524Z,101854.53
2022-10-12T15:52:51.706Z,101851.41
2022-10-12T15:55:55.649Z,101848.25
2022-10-12T15:58:58.250Z,101846.91
2022-10-12T16:02:02.113Z,101842.94
2022-10-12T16:05:05.217Z,101848.44
2022-10-12T16:08:07.850Z,101835.75
2022-10-12T16:11:13.698Z,101840.44
2022-10-12T16:14:16.338Z,101830.41
2022-10-12T16:17:20.153Z,101828.22
2022-10-12T16:20:23.229Z,101828.81
2022-10-12T16:23:29.101Z,101820.34
2022-10-12T16:26:31.656Z,101825.34
2022-10-12T16:29:34.158Z,101827.53
2022-10-12T16:32:38.047Z,101829.72
2022-10-12T16:35:41.023Z,101835.50
2022-10-12T16:38:44.429Z,101825.94
2022-10-12T16:41:46.895Z,101826.47
2022-10-12T16:44:49.521Z,101836.81
2022-10-12T16:47:53.967Z,101828.13
2022-10-12T16:50:56.444Z,101830.28
2022-10-12T16:53:58.930Z,101832.28
2022-10-12T16:57:01.605Z,101833.50
2022-10-12T17:00:05.463Z,101836.41
2022-10-12T17:03:09.314Z,101844.72
2022-10-12T17:06:12.166Z,101834.31
2022-10-12T17:09:15.343Z,101840.81
2022-10-12T17:12:18.378Z,101837.50
2022-10-12T17:15:21.121Z,101836.09
2022-10-12T17:18:24.942Z,101840.81
2022-10-12T17:21:28.453Z,101835.59
2022-10-12T17:24:32.945Z,101834.06
2022-10-12T17:27:35.415Z,101836.94
2022-10-12T17:30:38.783Z,101829.41
2022-10-12T17:33:42.695Z,101822.66
2022-10-12T17:36:45.198Z,101832.69
2022-10-12T17:39:48.275Z,101839.88
2022-10-12T17:42:50.745Z,101831.16
2022-10-12T17:45:53.240Z,101833.97
2022-10-12T17:48:59.171Z,101836.91
2022-10-12T17:52:01.944Z,101840.81
2022-10-12T17:55:04.758Z,101834.59
2022-10-12T17:58:07.361Z,101831.06
2022-10-12T18:01:12.462Z,101824.22
2022-10-12T18:04:16.464Z,101837.63
2022-10-12T18:07:19.166Z,101829.91
2022-10-12T18:10:24.744Z,101823.06
2022-10-12T18:13:31.404Z,101824.84
2022-10-12T18:16:34.909Z,101831.06
2022-10-12T18:19:38.793Z,101827.59
2022-10-12T18:22:41.269Z,101830.56
2022-10-12T18:25:46.308Z,101836.03
2022-10-12T18:28:49.663Z,101835.19
2022-10-12T18:31:53.024Z,101831.84
2022-10-12T18:34:56.850Z,101829.44
2022-10-12T18:37:59.330Z,101821.69
2022-10-12T18:41:05.322Z,101822.47
2022-10-12T18:44:09.043Z,101827.94
2022-10-12T18:47:11.628Z,101826.22
2022-10-12T18:50:15.471Z,101827.28
2022-10-12T18:53:17.999Z,101832.66
2022-10-12T18:56:20.934Z,101829.03
2022-10-12T18:59:23.413Z,101825.75
2022-10-12T19:02:25.895Z,101809.00
2022-10-12T19:05:30.569Z,101808.19
2022-10-12T19:08:33.154Z,101816.09
2022-10-12T19:11:36.738Z,101806.34
2022-10-12T19:14:39.242Z,101815.28
2022-10-12T19:17:41.727Z,101806.34
2022-10-12T19:20:45.538Z,101811.72
2022-10-12T19:23:48.170Z,101811.44
2022-10-12T19:26:50.695Z,101799.97
2022-10-12T19:29:53.228Z,101813.19
2022-10-12T19:32:55.702Z,101806.38
2022-10-12T19:35:59.532Z,101807.84
2022-10-12T19:39:04.816Z,101803.41
2022-10-12T19:42:07.308Z,101804.53
2022-10-12T19:45:10.579Z,101792.09
2022-10-12T19:48:13.199Z,101789.47
2022-10-12T19:51:18.114Z,101788.56
2022-10-12T19:54:20.662Z,101793.22
2022-10-12T19:57:23.669Z,101795.88
2022-10-12T20:00:26.195Z,101784.50
2022-10-12T20:03:28.877Z,101783.38
2022-10-12T20:06:33.091Z,101779.97
2022-10-12T20:09:35.603Z,101769.69
2022-10-12T20:12:38.411Z,101778.25
2022-10-12T20:15:40.898Z,101762.19
2022-10-12T20:18:43.431Z,101760.63
2022-10-12T20:21:47.275Z,101763.28
2022-10-12T20:24:49.759Z,101760.00
2022-10-12T20:27:52.256Z,101772.59
2022-10-12T20:31:00.080Z,101771.75
2022-10-12T20:34:02.592Z,101771.53
2022-10-12T20:37:06.406Z,101767.09
2022-10-12T20:40:09.966Z,101758.44
2022-10-12T20:43:12.554Z,101743.56
2022-10-12T20:46:17.047Z,101745.84
2022-10-12T20:49:19.757Z,101742.63
2022-10-12T20:52:23.553Z,101733.66
2022-10-12T20:55:26.399Z,101742.31
2022-10-12T20:58:28.874Z,101743.06
2022-10-12T21:01:31.387Z,101740.31
2022-10-12T21:04:38.284Z,101734.88
2022-10-12T21:07:42.278Z,101731.97
2022-10-12T21:10:47.295Z,101730.38
2022-10-12T21:13:50.492Z,101733.84
2022-10-12T21:16:53.149Z,101729.38
2022-10-12T21:19:55.629Z,101730.00
2022-10-12T21:22:59.481Z,101729.69
2022-10-12T21:26:10.036Z,101720.28
2022-10-12T21:29:12.868Z,101727.09
2022-10-12T21:32:15.904Z,101714.56
2022-10-12T21:35:18.581Z,101717.84
2022-10-12T21:38:22.380Z,101715.34
2022-10-12T21:41:28.185Z,101713.97
2022-10-12T21:44:30.745Z,101714.81
2022-10-12T21:47:33.429Z,101720.09
2022-10-12T21:50:35.909Z,101714.09
2022-10-12T21:53:40.978Z,101705.84
2022-10-12T21:56:44.058Z,101712.84
2022-10-12T21:59:48.974Z,101716.50
2022-10-12T22:02:51.529Z,101705.00
2022-10-12T22:05:54.027Z,101705.81
2022-10-12T22:08:59.961Z,101701.25
2022-10-12T22:12:02.439Z,101702.41
2022-10-12T22:15:05.397Z,101693.50
2022-10-12T22:18:07.885Z,101685.59
2022-10-12T22:21:12.943Z,101688.16
2022-10-12T22:24:16.817Z,101681.91
2022-10-12T22:27:19.306Z,101687.44
2022-10-12T22:30:21.825Z,101681.13
2022-10-12T22:33:24.626Z,101674.28
2022-10-12T22:36:27.372Z,101685.72
2022-10-12T22:39:31.315Z,101678.53
2022-10-12T22:42:33.801Z,101680.28
2022-10-12T22:45:36.280Z,101682.31
2022-10-12T22:48:39.242Z,101690.91
2022-10-12T22:51:41.756Z,101679.13
2022-10-12T22:54:45.888Z,101680.94
2022-10-12T22:57:48.361Z,101688.97
2022-10-12T23:00:50.868Z,101674.75
2022-10-12T23:03:54.897Z,101677.38
2022-10-12T23:06:57.384Z,101675.63
2022-10-12T23:10:01.610Z,101672.09
2022-10-12T23:13:04.105Z,101666.78
2022-10-12T23:16:08.835Z,101669.19
2022-10-12T23:19:11.449Z,101659.66
2022-10-12T23:22:13.920Z,101651.75
2022-10-12T23:25:18.222Z,101643.69
2022-10-12T23:28:20.727Z,101650.88
2022-10-12T23:31:24.812Z,101654.50
2022-10-12T23:34:27.541Z,101645.66
2022-10-12T23:37:30.462Z,101641.09
2022-10-12T23:40:35.918Z,101642.09
2022-10-12T23:43:38.527Z,101639.31
2022-10-12T23:46:41.035Z,101636.91
2022-10-12T23:49:44.462Z,101630.66
2022-10-12T23:52:46.969Z,101624.56
2022-10-12T23:55:52.350Z,101623.63
2022-10-12T23:58:55.038Z,101630.78
